createdAt,value
2022-10-12T00:00:10.127Z,100211.13
2022-10-12T00:00:22.155Z,100216.34
2022-10-12T00:00:34.315Z,100212.03
2022-10-12T00:00:47.578Z,100208.63
2022-10-12T00:00:59.501Z,100211.22
2022-10-12T00:01:11.648Z,100212.94
2022-10-12T00:01:23.910Z,100209.47
2022-10-12T00:01:35.892Z,100212.16
2022-10-12T00:01:47.892Z,100205.13
2022-10-12T00:01:59.907Z,100208.63
2022-10-12T00:02:11.954Z,100211.28
2022-10-12T00:02:23.886Z,100211.22
2022-10-12T00:02:35.786Z,100207.81
2022-10-12T00:02:47.682Z,100210.44
2022-10-12T00:02:59.592Z,100207.88
2022-10-12T00:03:13.301Z,100213.06
2022-10-12T00:03:25.489Z,100208.75
2022-10-12T00:03:37.837Z,100210.44
2022-10-12T00:03:50.223Z,100204.38
2022-10-12T00:04:02.153Z,100203.53
2022-10-12T00:04:14.029Z,100208.66
2022-10-12T00:04:25.941Z,100211.28
2022-10-12T00:04:37.823Z,100205.22
2022-10-12T00:04:49.712Z,100210.34
2022-10-12T00:05:01.595Z,100212.06
2022-10-12T00:05:13.491Z,100207.72
2022-10-12T00:05:25.407Z,100216.47
2022-10-12T00:05:38.025Z,100210.38
2022-10-12T00:06:10.378Z,100213.97
2022-10-12T00:06:24.143Z,100214.03
2022-10-12T00:06:36.119Z,100213.19
2022-10-12T00:06:48.035Z,100206.25
2022-10-12T00:06:59.915Z,100210.69
2022-10-12T00:07:11.793Z,100214.22
2022-10-12T00:07:23.742Z,100215.00
2022-10-12T00:07:36.230Z,100212.44
2022-10-12T00:07:48.355Z,100207.25
2022-10-12T00:08:00.224Z,100211.59
2022-10-12T00:08:12.325Z,100219.44
2022-10-12T00:08:24.215Z,100211.66
2022-10-12T00:08:38.196Z,100209.09
2022-10-12T00:08:53.267Z,100208.13
2022-10-12T00:09:06.105Z,100212.50
2022-10-12T00:09:18.070Z,100212.50
2022-10-12T00:09:29.948Z,100212.50
2022-10-12T00:09:41.938Z,100215.16
2022-10-12T00:09:53.885Z,100210.91
2022-10-12T00:10:06.072Z,100212.69
2022-10-12T00:10:18.637Z,100212.72
2022-10-12T00:10:30.512Z,100206.66
2022-10-12T00:10:43.456Z,100207.50
2022-10-12T00:10:55.350Z,100212.78
2022-10-12T00:11:11.454Z,100210.13
2022-10-12T00:11:26.013Z,100211.13
2022-10-12T00:11:40.660Z,100210.34
2022-10-12T00:11:52.577Z,100217.38
2022-10-12T00:12:04.584Z,100213.06
2022-10-12T00:12:16.850Z,100214.81
2022-10-12T00:12:28.763Z,100207.81
2022-10-12T00:12:40.660Z,100210.53
2022-10-12T00:12:52.545Z,100209.53
2022-10-12T00:13:04.452Z,100215.63
2022-10-12T00:13:16.373Z,100213.84
2022-10-12T00:13:28.757Z,100212.13
2022-10-12T00:13:40.784Z,100211.19
2022-10-12T00:13:53.843Z,100214.66
2022-10-12T00:14:05.818Z,100216.34
2022-10-12T00:14:17.738Z,100208.53
2022-10-12T00:14:29.624Z,100212.94
2022-10-12T00:14:41.504Z,100212.94
2022-10-12T00:14:53.428Z,100213.13
2022-10-12T00:15:05.896Z,100215.09
2022-10-12T00:15:17.858Z,100216.13
2022-10-12T00:15:29.768Z,100215.31
2022-10-12T00:15:44.771Z,100217.03
2022-10-12T00:15:59.341Z,100211.81
2022-10-12T00:16:12.924Z,100211.81
2022-10-12T00:16:25.651Z,100216.13
2022-10-12T00:16:37.585Z,100214.38
2022-10-12T00:16:51.694Z,100210.00
2022-10-12T00:17:04.121Z,100211.81
2022-10-12T00:17:16.131Z,100210.03
2022-10-12T00:17:28.073Z,100209.16
2022-10-12T00:17:40.291Z,100210.00
2022-10-12T00:17:53.755Z,100210.88
2022-10-12T00:18:06.796Z,100212.63
2022-10-12T00:18:19.046Z,100213.41
2022-10-12T00:18:31.995Z,100203.81
2022-10-12T00:18:44.232Z,100215.09
2022-10-12T00:18:57.080Z,100210.66
2022-10-12T00:19:13.133Z,100205.38
2022-10-12T00:19:25.028Z,100208.06
2022-10-12T00:19:36.930Z,100209.88
2022-10-12T00:19:50.179Z,100202.97
2022-10-12T00:20:03.707Z,100204.66
2022-10-12T00:20:16.037Z,100208.06
2022-10-12T00:20:27.929Z,100215.78
2022-10-12T00:20:39.818Z,100207.16
2022-10-12T00:21:04.853Z,100214.03
2022-10-12T00:21:17.191Z,100213.13
2022-10-12T00:21:30.266Z,100209.66
2022-10-12T00:21:42.264Z,100205.28
2022-10-12T00:21:54.272Z,100204.41
2022-10-12T00:22:06.503Z,100209.66
2022-10-12T00:22:18.677Z,100205.28
2022-10-12T00:22:31.153Z,100206.13
2022-10-12T00:22:43.037Z,100213.97
2022-10-12T00:22:54.919Z,100207.81
2022-10-12T00:23:07.982Z,100209.53
2022-10-12T00:23:19.864Z,100211.22
2022-10-12T00:23:32.259Z,100213.06
2022-10-12T00:23:45.183Z,100212.16
2022-10-12T00:24:01.355Z,100207.81
2022-10-12T00:24:13.310Z,100211.22
2022-10-12T00:24:25.583Z,100214.78
2022-10-12T00:24:42.084Z,100209.53
2022-10-12T00:24:54.993Z,100214.78
2022-10-12T00:25:07.301Z,100208.69
2022-10-12T00:25:19.330Z,100208.69
2022-10-12T00:25:31.232Z,100212.22
2022-10-12T00:25:43.185Z,100215.75
2022-10-12T00:25:55.197Z,100213.13
2022-10-12T00:26:11.123Z,100211.47
2022-10-12T00:26:23.611Z,100209.88
2022-10-12T00:26:35.492Z,100206.47
2022-10-12T00:26:50.668Z,100209.88
2022-10-12T00:27:02.544Z,100214.25
2022-10-12T00:27:14.415Z,100213.41
2022-10-12T00:27:27.505Z,100211.69
2022-10-12T00:27:39.777Z,100207.34
2022-10-12T00:27:51.834Z,100209.88
2022-10-12T00:28:04.056Z,100210.78
2022-10-12T00:28:15.991Z,100205.56
2022-10-12T00:28:28.584Z,100206.47
2022-10-12T00:28:41.144Z,100212.63
2022-10-12T00:29:01.305Z,100215.22
2022-10-12T00:29:13.193Z,100210.09
2022-10-12T00:29:25.345Z,100212.66
2022-10-12T00:29:37.983Z,100213.50
2022-10-12T00:29:49.875Z,100216.06
2022-10-12T00:30:01.906Z,100215.22
2022-10-12T00:30:13.948Z,100207.34
2022-10-12T00:30:25.827Z,100208.28
2022-10-12T00:30:40.236Z,100203.94
2022-10-12T00:30:52.107Z,100206.47
2022-10-12T00:31:13.038Z,100204.66
2022-10-12T00:31:26.726Z,100205.56
2022-10-12T00:31:38.816Z,100205.56
2022-10-12T00:31:50.734Z,100213.41
2022-10-12T00:32:02.712Z,100211.63
2022-10-12T00:32:15.286Z,100213.41
2022-10-12T00:32:27.195Z,100209.88
2022-10-12T00:32:39.073Z,100216.91
2022-10-12T00:32:50.952Z,100209.88
2022-10-12T00:33:02.891Z,100204.66
2022-10-12T00:33:14.760Z,100208.06
2022-10-12T00:33:29.266Z,100209.78
2022-10-12T00:33:41.729Z,100206.25
2022-10-12T00:33:54.361Z,100208.84
2022-10-12T00:34:06.260Z,100202.72
2022-10-12T00:34:18.477Z,100210.53
2022-10-12T00:34:30.517Z,100211.38
2022-10-12T00:34:42.489Z,100214.81
2022-10-12T00:34:55.377Z,100210.44
2022-10-12T00:35:07.674Z,100206.13
2022-10-12T00:35:19.585Z,100212.22
2022-10-12T00:35:31.457Z,100207.81
2022-10-12T00:35:43.362Z,100207.78
2022-10-12T00:35:55.319Z,100213.84
2022-10-12T00:36:23.693Z,100211.22
2022-10-12T00:36:36.214Z,100203.34
2022-10-12T00:36:48.150Z,100202.50
2022-10-12T00:37:00.081Z,100209.53
2022-10-12T00:37:11.965Z,100209.59
2022-10-12T00:37:23.873Z,100207.91
2022-10-12T00:37:36.203Z,100206.25
2022-10-12T00:37:48.332Z,100203.63
2022-10-12T00:38:00.435Z,100201.00
2022-10-12T00:38:12.339Z,100202.72
2022-10-12T00:38:24.337Z,100204.53
2022-10-12T00:38:36.208Z,100208.06
2022-10-12T00:38:49.738Z,100197.69
2022-10-12T00:39:04.024Z,100206.38
2022-10-12T00:39:16.006Z,100202.13
2022-10-12T00:39:30.812Z,100199.56
2022-10-12T00:39:42.803Z,100206.47
2022-10-12T00:39:54.681Z,100204.66
2022-10-12T00:40:07.245Z,100202.81
2022-10-12T00:40:19.127Z,100201.25
2022-10-12T00:40:31.062Z,100203.84
2022-10-12T00:40:42.931Z,100200.50
2022-10-12T00:40:54.844Z,100197.97
2022-10-12T00:41:06.833Z,100210.09
2022-10-12T00:41:21.926Z,100208.41
2022-10-12T00:41:43.392Z,100205.88
2022-10-12T00:41:55.329Z,100205.88
2022-10-12T00:42:08.104Z,100213.84
2022-10-12T00:42:21.026Z,100206.91
2022-10-12T00:42:32.919Z,100210.53
2022-10-12T00:42:44.792Z,100207.13
2022-10-12T00:42:56.672Z,100200.22
2022-10-12T00:43:45.333Z,100204.66
2022-10-12T00:43:58.959Z,100198.56
2022-10-12T00:44:40.491Z,100202.13
2022-10-12T00:44:52.875Z,100203.94
2022-10-12T00:45:05.166Z,100207.34
2022-10-12T00:45:17.315Z,100203.94
2022-10-12T00:45:30.146Z,100202.34
2022-10-12T00:45:42.117Z,100208.38
2022-10-12T00:45:54.284Z,100206.59
2022-10-12T00:46:13.868Z,100201.28
2022-10-12T00:46:30.908Z,100197.75
2022-10-12T00:46:45.737Z,100203.84
2022-10-12T00:47:00.750Z,100207.25
2022-10-12T00:47:20.066Z,100205.44
2022-10-12T00:47:37.176Z,100197.53
2022-10-12T00:48:00.124Z,100206.28
2022-10-12T00:48:12.018Z,100210.66
2022-10-12T00:48:24.495Z,100200.22
2022-10-12T00:48:37.303Z,100196.81
2022-10-12T00:49:18.155Z,100198.56
2022-10-12T00:49:30.070Z,100206.34
2022-10-12T00:49:43.459Z,100208.84
2022-10-12T00:50:00.899Z,100200.13
2022-10-12T00:50:20.659Z,100201.91
2022-10-12T00:50:35.226Z,100205.44
2022-10-12T00:50:47.139Z,100195.84
2022-10-12T00:51:02.286Z,100206.28
2022-10-12T00:51:16.706Z,100198.41
2022-10-12T00:51:28.844Z,100203.63
2022-10-12T00:51:43.727Z,100202.72
2022-10-12T00:52:01.682Z,100198.41
2022-10-12T00:52:17.212Z,100196.63
2022-10-12T00:52:40.947Z,100200.94
2022-10-12T00:52:52.792Z,100202.72
2022-10-12T00:53:11.418Z,100199.25
2022-10-12T00:53:29.035Z,100202.75
2022-10-12T00:53:44.720Z,100199.31
2022-10-12T00:54:02.271Z,100196.69
2022-10-12T00:54:19.002Z,100195.84
2022-10-12T00:54:36.312Z,100201.06
2022-10-12T00:54:52.570Z,100193.22
2022-10-12T00:55:06.156Z,100195.00
2022-10-12T00:55:20.460Z,100195.09
2022-10-12T00:55:38.520Z,100203.16
2022-10-12T00:55:54.865Z,100200.59
2022-10-12T00:56:12.769Z,100199.69
2022-10-12T00:56:30.461Z,100201.44
2022-10-12T00:56:44.675Z,100197.97
2022-10-12T00:56:57.433Z,100200.53
2022-10-12T00:57:12.661Z,100208.31
2022-10-12T00:57:24.875Z,100200.53
2022-10-12T00:57:37.328Z,100198.75
2022-10-12T00:57:52.830Z,100207.56
2022-10-12T00:58:06.976Z,100198.94
2022-10-12T00:58:19.611Z,100205.84
2022-10-12T00:58:32.845Z,100204.16
2022-10-12T00:58:48.359Z,100199.03
2022-10-12T00:59:03.408Z,100203.38
2022-10-12T00:59:26.304Z,100195.53
2022-10-12T00:59:48.549Z,100207.84
2022-10-12T01:00:08.062Z,100210.47
2022-10-12T01:00:20.956Z,100202.63
2022-10-12T01:00:32.885Z,100203.47
2022-10-12T01:00:45.193Z,100204.25
2022-10-12T01:01:01.586Z,100207.78
2022-10-12T01:01:13.649Z,100199.97
2022-10-12T01:01:25.863Z,100205.06
2022-10-12T01:01:38.746Z,100195.56
2022-10-12T01:01:50.903Z,100200.75
2022-10-12T01:02:02.921Z,100205.97
2022-10-12T01:02:15.155Z,100204.25
2022-10-12T01:02:31.632Z,100200.75
2022-10-12T01:02:45.660Z,100205.97
2022-10-12T01:02:58.226Z,100202.53
2022-10-12T01:03:15.188Z,100200.75
2022-10-12T01:03:27.141Z,100205.97
2022-10-12T01:03:40.014Z,100206.94
2022-10-12T01:03:52.127Z,100203.41
2022-10-12T01:04:06.705Z,100202.56
2022-10-12T01:04:18.781Z,100205.19
2022-10-12T01:04:32.783Z,100204.25
2022-10-12T01:04:45.948Z,100201.66
2022-10-12T01:04:58.727Z,100200.75
2022-10-12T01:05:11.941Z,100201.66
2022-10-12T01:05:24.312Z,100199.91
2022-10-12T01:05:39.506Z,100199.91
2022-10-12T01:05:51.495Z,100200.75
2022-10-12T01:06:03.843Z,100201.72
2022-10-12T01:06:16.607Z,100208.63
2022-10-12T01:06:29.942Z,100203.41
2022-10-12T01:06:42.031Z,100200.84
2022-10-12T01:06:53.966Z,100202.56
2022-10-12T01:07:05.881Z,100203.41
2022-10-12T01:07:17.807Z,100202.63
2022-10-12T01:07:30.088Z,100201.81
2022-10-12T01:07:41.999Z,100203.50
2022-10-12T01:07:54.149Z,100206.16
2022-10-12T01:08:06.341Z,100202.63
2022-10-12T01:08:18.304Z,100200.00
2022-10-12T01:08:30.282Z,100195.72
2022-10-12T01:08:42.681Z,100197.41
2022-10-12T01:08:55.707Z,100202.63
2022-10-12T01:09:07.657Z,100202.75
2022-10-12T01:09:22.337Z,100198.41
2022-10-12T01:09:34.303Z,100199.34
2022-10-12T01:09:46.567Z,100198.50
2022-10-12T01:09:58.494Z,100202.13
2022-10-12T01:10:10.955Z,100199.56
2022-10-12T01:10:22.852Z,100205.66
2022-10-12T01:10:34.815Z,100199.56
2022-10-12T01:10:46.688Z,100208.28
2022-10-12T01:10:58.775Z,100202.16
2022-10-12T01:11:11.509Z,100201.19
2022-10-12T01:11:23.486Z,100203.75
2022-10-12T01:11:35.405Z,100198.59
2022-10-12T01:11:47.870Z,100206.47
2022-10-12T01:12:00.096Z,100203.84
2022-10-12T01:12:12.420Z,100206.41
2022-10-12T01:12:24.860Z,100202.97
2022-10-12T01:12:38.533Z,100198.59
2022-10-12T01:12:50.636Z,100201.25
2022-10-12T01:13:03.261Z,100203.13
2022-10-12T01:13:15.376Z,100201.47
2022-10-12T01:13:27.467Z,100208.41
2022-10-12T01:13:39.475Z,100210.22
2022-10-12T01:13:51.823Z,100201.56
2022-10-12T01:14:03.862Z,100210.28
2022-10-12T01:14:16.384Z,100205.19
2022-10-12T01:14:28.253Z,100211.31
2022-10-12T01:14:40.211Z,100205.19
2022-10-12T01:14:52.134Z,100203.47
2022-10-12T01:15:05.044Z,100211.34
2022-10-12T01:15:17.163Z,100204.41
2022-10-12T01:15:51.464Z,100202.72
2022-10-12T01:16:16.080Z,100209.75
2022-10-12T01:17:06.739Z,100209.03
2022-10-12T01:17:33.345Z,100206.50
2022-10-12T01:18:05.449Z,100210.16
2022-10-12T01:18:37.785Z,100209.22
2022-10-12T01:19:03.000Z,100215.41
2022-10-12T01:19:35.774Z,100206.88
2022-10-12T01:20:06.656Z,100209.72
2022-10-12T01:20:30.350Z,100211.38
2022-10-12T01:20:47.909Z,100206.00
2022-10-12T01:21:22.297Z,100204.09
2022-10-12T01:21:39.330Z,100209.31
2022-10-12T01:22:07.661Z,100202.38
2022-10-12T01:22:22.366Z,100200.69
2022-10-12T01:22:42.134Z,100205.91
2022-10-12T01:23:10.661Z,100199.75
2022-10-12T01:23:28.305Z,100201.53
2022-10-12T01:23:52.427Z,100201.66
2022-10-12T01:24:23.078Z,100206.00
2022-10-12T01:24:42.754Z,100210.31
2022-10-12T01:25:43.275Z,100208.41
2022-10-12T01:26:03.937Z,100197.06
2022-10-12T01:26:37.313Z,100206.63
2022-10-12T01:26:57.345Z,100199.63
2022-10-12T01:27:30.667Z,100204.00
2022-10-12T01:28:14.961Z,100209.22
2022-10-12T01:28:52.511Z,100201.41
2022-10-12T01:29:31.609Z,100201.53
2022-10-12T01:30:01.807Z,100200.69
2022-10-12T01:30:19.626Z,100207.59
2022-10-12T01:30:40.227Z,100204.25
2022-10-12T01:30:59.123Z,100200.78
2022-10-12T01:31:20.243Z,100202.50
2022-10-12T01:31:57.270Z,100197.31
2022-10-12T01:32:21.930Z,100199.94
2022-10-12T01:32:43.094Z,100201.69
2022-10-12T01:32:54.958Z,100200.09
2022-10-12T01:33:19.758Z,100206.19
2022-10-12T01:33:42.020Z,100195.03
2022-10-12T01:34:00.020Z,100202.91
2022-10-12T01:34:39.680Z,100199.44
2022-10-12T01:35:08.173Z,100209.16
2022-10-12T01:35:50.779Z,100203.09
2022-10-12T01:36:14.925Z,100201.53
2022-10-12T01:36:59.028Z,100203.34
2022-10-12T01:37:41.663Z,100199.94
2022-10-12T01:38:11.946Z,100208.72
2022-10-12T01:38:53.623Z,100194.88
2022-10-12T01:39:08.177Z,100197.41
2022-10-12T01:39:30.944Z,100196.50
2022-10-12T01:39:49.066Z,100196.56
2022-10-12T01:40:07.666Z,100199.97
2022-10-12T01:40:27.365Z,100193.91
2022-10-12T01:40:49.442Z,100200.09
2022-10-12T01:41:34.048Z,100193.06
2022-10-12T01:42:00.315Z,100191.25
2022-10-12T01:42:19.920Z,100199.97
2022-10-12T01:42:37.005Z,100200.78
2022-10-12T01:42:49.159Z,100198.16
2022-10-12T01:43:02.123Z,100196.47
2022-10-12T01:43:18.003Z,100197.31
2022-10-12T01:43:35.035Z,100196.34
2022-10-12T01:43:47.127Z,100198.13
2022-10-12T01:43:59.059Z,100197.28
2022-10-12T01:44:10.940Z,100197.31
2022-10-12T01:44:24.649Z,100196.47
2022-10-12T01:44:41.921Z,100199.88
2022-10-12T01:45:08.766Z,100202.50
2022-10-12T01:45:20.783Z,100203.34
2022-10-12T01:45:32.734Z,100191.19
2022-10-12T01:45:44.947Z,100194.66
2022-10-12T01:45:56.826Z,100200.78
2022-10-12T01:46:20.781Z,100197.31
2022-10-12T01:46:32.596Z,100195.75
2022-10-12T01:46:46.224Z,100193.16
2022-10-12T01:46:58.213Z,100200.13
2022-10-12T01:47:10.083Z,100203.56
2022-10-12T01:47:21.991Z,100201.88
2022-10-12T01:47:35.411Z,100195.94
2022-10-12T01:47:52.638Z,100199.31
2022-10-12T01:48:05.260Z,100205.56
2022-10-12T01:48:17.867Z,100199.38
2022-10-12T01:48:29.748Z,100199.38
2022-10-12T01:48:44.457Z,100203.78
2022-10-12T01:49:01.348Z,100201.34
2022-10-12T01:49:16.618Z,100197.94
2022-10-12T01:49:32.676Z,100198.84
2022-10-12T01:49:44.599Z,100199.03
2022-10-12T01:49:57.810Z,100199.91
2022-10-12T01:50:13.238Z,100199.81
2022-10-12T01:50:41.073Z,100206.03
2022-10-12T01:50:56.227Z,100195.91
2022-10-12T01:51:10.889Z,100194.38
2022-10-12T01:51:43.155Z,100195.91
2022-10-12T01:52:06.642Z,100204.53
2022-10-12T01:52:36.629Z,100202.00
2022-10-12T01:53:03.458Z,100200.94
2022-10-12T01:53:38.505Z,100203.75
2022-10-12T01:54:16.072Z,100197.94
2022-10-12T01:54:46.564Z,100199.50
2022-10-12T01:55:27.412Z,100199.78
2022-10-12T01:55:43.878Z,100201.50
2022-10-12T01:56:24.777Z,100196.34
2022-10-12T01:56:48.821Z,100195.56
2022-10-12T01:57:25.781Z,100197.00
2022-10-12T01:58:02.185Z,100202.06
2022-10-12T01:58:31.945Z,100198.50
2022-10-12T01:59:34.670Z,100194.81
2022-10-12T01:59:54.693Z,100196.34
2022-10-12T02:00:15.441Z,100201.44
2022-10-12T02:00:27.479Z,100200.56
2022-10-12T02:00:44.973Z,100195.25
2022-10-12T02:01:11.614Z,100204.72
2022-10-12T02:01:41.344Z,100197.59
2022-10-12T02:02:11.909Z,100195.69
2022-10-12T02:02:45.189Z,100192.94
2022-10-12T02:03:15.123Z,100202.50
2022-10-12T02:03:51.539Z,100195.56
2022-10-12T02:04:18.672Z,100200.72
2022-10-12T02:04:51.067Z,100203.38
2022-10-12T02:05:03.630Z,100199.97
2022-10-12T02:05:37.323Z,100199.13
2022-10-12T02:06:00.863Z,100200.94
2022-10-12T02:06:18.638Z,100194.09
2022-10-12T02:06:38.222Z,100193.47
2022-10-12T02:06:58.810Z,100198.66
2022-10-12T02:07:16.702Z,100201.22
2022-10-12T02:07:41.110Z,100196.94
2022-10-12T02:08:00.803Z,100198.66
2022-10-12T02:08:24.320Z,100200.28
2022-10-12T02:08:50.262Z,100201.88
2022-10-12T02:09:12.234Z,100199.16
2022-10-12T02:09:26.143Z,100195.59
2022-10-12T02:09:39.789Z,100196.47
2022-10-12T02:09:57.547Z,100198.16
2022-10-12T02:10:16.314Z,100198.16
2022-10-12T02:10:35.253Z,100197.22
2022-10-12T02:10:58.628Z,100194.56
2022-10-12T02:11:16.626Z,100198.88
2022-10-12T02:11:28.950Z,100203.19
2022-10-12T02:11:43.691Z,100201.50
2022-10-12T02:12:00.001Z,100193.72
2022-10-12T02:12:19.466Z,100197.16
2022-10-12T02:12:33.152Z,100195.41
2022-10-12T02:12:48.096Z,100195.34
2022-10-12T02:13:03.889Z,100201.50
2022-10-12T02:13:20.170Z,100197.97
2022-10-12T02:13:37.261Z,100205.78
2022-10-12T02:13:53.434Z,100202.38
2022-10-12T02:14:23.166Z,100199.88
2022-10-12T02:14:40.150Z,100201.69
2022-10-12T02:14:59.760Z,100199.97
2022-10-12T02:15:13.453Z,100202.63
2022-10-12T02:15:26.971Z,100198.28
2022-10-12T02:15:41.634Z,100199.97
2022-10-12T02:15:54.724Z,100199.97
2022-10-12T02:16:14.466Z,100199.88
2022-10-12T02:16:34.419Z,100196.34
2022-10-12T02:16:53.072Z,100198.97
2022-10-12T02:17:09.496Z,100197.16
2022-10-12T02:17:23.004Z,100192.94
2022-10-12T02:17:35.671Z,100192.09
2022-10-12T02:17:52.469Z,100195.56
2022-10-12T02:18:05.459Z,100196.34
2022-10-12T02:18:19.383Z,100192.25
2022-10-12T02:18:34.924Z,100195.25
2022-10-12T02:18:51.819Z,100192.00
2022-10-12T02:19:07.969Z,100193.91
2022-10-12T02:19:25.089Z,100191.31
2022-10-12T02:19:42.871Z,100192.97
2022-10-12T02:19:59.550Z,100183.38
2022-10-12T02:20:14.144Z,100191.28
2022-10-12T02:20:27.583Z,100188.66
2022-10-12T02:20:40.537Z,100190.41
2022-10-12T02:20:54.593Z,100188.75
2022-10-12T02:21:07.598Z,100187.88
2022-10-12T02:21:24.038Z,100189.59
2022-10-12T02:21:36.330Z,100192.50
2022-10-12T02:21:50.148Z,100190.88
2022-10-12T02:22:05.671Z,100193.72
2022-10-12T02:22:18.274Z,100186.03
2022-10-12T02:22:36.545Z,100191.47
2022-10-12T02:22:51.127Z,100189.94
2022-10-12T02:23:03.653Z,100190.03
2022-10-12T02:23:18.192Z,100190.13
2022-10-12T02:23:30.712Z,100192.78
2022-10-12T02:23:44.374Z,100189.38
2022-10-12T02:24:00.189Z,100190.22
2022-10-12T02:24:13.779Z,100185.84
2022-10-12T02:24:27.128Z,100188.44
2022-10-12T02:24:41.353Z,100192.72
2022-10-12T02:24:58.142Z,100197.84
2022-10-12T02:25:14.133Z,100189.09
2022-10-12T02:25:27.737Z,100189.03
2022-10-12T02:25:40.614Z,100192.44
2022-10-12T02:25:53.624Z,100189.78
2022-10-12T02:26:07.849Z,100188.00
2022-10-12T02:26:21.460Z,100187.91
2022-10-12T02:26:37.382Z,100191.31
2022-10-12T02:26:53.624Z,100187.72
2022-10-12T02:27:09.023Z,100190.31
2022-10-12T02:27:21.974Z,100189.34
2022-10-12T02:27:36.953Z,100189.28
2022-10-12T02:28:03.816Z,100185.75
2022-10-12T02:28:18.520Z,100180.66
2022-10-12T02:28:34.475Z,100185.34
2022-10-12T02:28:49.474Z,100190.59
2022-10-12T02:29:06.137Z,100182.94
2022-10-12T02:29:23.243Z,100188.25
2022-10-12T02:29:41.672Z,100189.13
2022-10-12T02:29:53.926Z,100184.03
2022-10-12T02:30:07.107Z,100187.50
2022-10-12T02:30:21.143Z,100182.31
2022-10-12T02:30:38.629Z,100184.34
2022-10-12T02:31:08.269Z,100185.44
2022-10-12T02:31:51.119Z,100184.94
2022-10-12T02:32:18.194Z,100185.78
2022-10-12T02:32:58.870Z,100185.88
2022-10-12T02:33:23.599Z,100182.53
2022-10-12T02:33:38.988Z,100188.69
2022-10-12T02:34:04.345Z,100190.50
2022-10-12T02:34:24.838Z,100193.13
2022-10-12T02:34:51.789Z,100182.78
2022-10-12T02:35:20.875Z,100183.53
2022-10-12T02:35:41.444Z,100191.25
2022-10-12T02:36:00.480Z,100191.25
2022-10-12T02:36:21.602Z,100187.66
2022-10-12T02:36:54.949Z,100189.28
2022-10-12T02:37:44.850Z,100189.06
2022-10-12T02:38:01.303Z,100180.22
2022-10-12T02:38:19.097Z,100185.38
2022-10-12T02:38:48.495Z,100181.66
2022-10-12T02:39:11.831Z,100185.03
2022-10-12T02:39:29.102Z,100181.50
2022-10-12T02:39:46.604Z,100184.91
2022-10-12T02:40:27.460Z,100187.06
2022-10-12T02:40:50.683Z,100188.84
2022-10-12T02:41:08.222Z,100180.13
2022-10-12T02:41:27.464Z,100180.25
2022-10-12T02:41:46.437Z,100189.13
2022-10-12T02:42:08.085Z,100184.09
2022-10-12T02:42:41.866Z,100185.00
2022-10-12T02:43:52.711Z,100184.00
2022-10-12T02:44:08.703Z,100182.13
2022-10-12T02:44:30.684Z,100179.38
2022-10-12T02:44:44.683Z,100189.88
2022-10-12T02:44:59.591Z,100180.56
2022-10-12T02:45:13.413Z,100182.50
2022-10-12T02:45:29.278Z,100175.63
2022-10-12T02:45:45.200Z,100180.84
2022-10-12T02:46:04.176Z,100189.47
2022-10-12T02:46:18.746Z,100180.66
2022-10-12T02:46:33.395Z,100183.28
2022-10-12T02:46:48.008Z,100185.00
2022-10-12T02:47:04.253Z,100182.47
2022-10-12T02:47:17.212Z,100188.47
2022-10-12T02:47:32.424Z,100183.19
2022-10-12T02:47:47.069Z,100184.78
2022-10-12T02:48:00.653Z,100179.41
2022-10-12T02:48:17.600Z,100178.44
2022-10-12T02:48:30.021Z,100174.84
2022-10-12T02:48:44.665Z,100175.63
2022-10-12T02:48:59.113Z,100177.22
2022-10-12T02:49:11.802Z,100181.50
2022-10-12T02:49:26.573Z,100174.50
2022-10-12T02:49:41.907Z,100184.84
2022-10-12T02:49:55.697Z,100179.53
2022-10-12T02:50:09.532Z,100179.44
2022-10-12T02:50:22.560Z,100176.84
2022-10-12T02:50:34.731Z,100177.59
2022-10-12T02:50:50.916Z,100177.56
2022-10-12T02:51:03.812Z,100175.81
2022-10-12T02:51:15.910Z,100178.41
2022-10-12T02:51:31.530Z,100178.41
2022-10-12T02:51:44.708Z,100174.03
2022-10-12T02:51:58.020Z,100173.13
2022-10-12T02:52:10.044Z,100179.22
2022-10-12T02:52:23.894Z,100178.41
2022-10-12T02:52:36.103Z,100179.22
2022-10-12T02:52:49.747Z,100174.81
2022-10-12T02:53:01.933Z,100177.41
2022-10-12T02:53:14.088Z,100171.28
2022-10-12T02:53:28.475Z,100172.22
2022-10-12T02:53:40.853Z,100172.09
2022-10-12T02:53:53.448Z,100173.81
2022-10-12T02:54:05.391Z,100173.81
2022-10-12T02:54:17.463Z,100175.47
2022-10-12T02:54:29.840Z,100165.00
2022-10-12T02:54:41.770Z,100171.06
2022-10-12T02:54:53.660Z,100173.63
2022-10-12T02:55:06.071Z,100170.13
2022-10-12T02:55:18.103Z,100168.31
2022-10-12T02:55:31.334Z,100169.94
2022-10-12T02:55:51.841Z,100169.84
2022-10-12T02:56:09.769Z,100169.72
2022-10-12T02:56:21.867Z,100174.03
2022-10-12T02:56:33.792Z,100169.66
2022-10-12T02:56:46.961Z,100168.69
2022-10-12T02:56:58.823Z,100170.47
2022-10-12T02:57:10.804Z,100173.06
2022-10-12T02:57:22.793Z,100164.34
2022-10-12T02:57:34.911Z,100174.72
2022-10-12T02:57:47.349Z,100165.09
2022-10-12T02:57:59.446Z,100170.31
2022-10-12T02:58:11.340Z,100170.28
2022-10-12T02:58:23.418Z,100171.91
2022-10-12T02:58:35.556Z,100172.75
2022-10-12T02:58:50.996Z,100172.69
2022-10-12T02:59:02.900Z,100172.63
2022-10-12T02:59:16.575Z,100162.16
2022-10-12T02:59:28.673Z,100170.69
2022-10-12T02:59:40.591Z,100171.53
2022-10-12T02:59:52.636Z,100174.00
2022-10-12T03:00:05.106Z,100167.06
2022-10-12T03:00:17.551Z,100167.91
2022-10-12T03:00:33.616Z,100174.00
2022-10-12T03:00:45.889Z,100166.19
2022-10-12T03:00:58.139Z,100167.03
2022-10-12T03:01:10.962Z,100167.00
2022-10-12T03:01:22.949Z,100169.59
2022-10-12T03:01:34.966Z,100171.41
2022-10-12T03:01:46.984Z,100170.53
2022-10-12T03:01:58.981Z,100169.69
2022-10-12T03:02:10.985Z,100168.78
2022-10-12T03:02:23.024Z,100170.47
2022-10-12T03:02:34.904Z,100172.22
2022-10-12T03:02:46.789Z,100171.28
2022-10-12T03:02:58.705Z,100174.75
2022-10-12T03:03:10.960Z,100174.69
2022-10-12T03:03:22.928Z,100168.59
2022-10-12T03:03:36.765Z,100172.00
2022-10-12T03:03:48.671Z,100169.31
2022-10-12T03:04:03.648Z,100173.59
2022-10-12T03:04:16.053Z,100169.19
2022-10-12T03:04:33.179Z,100170.00
2022-10-12T03:04:45.232Z,100166.47
2022-10-12T03:04:57.178Z,100172.00
2022-10-12T03:05:11.421Z,100177.31
2022-10-12T03:05:23.324Z,100167.72
2022-10-12T03:05:35.429Z,100172.00
2022-10-12T03:05:50.189Z,100173.69
2022-10-12T03:06:02.715Z,100169.31
2022-10-12T03:06:14.686Z,100168.47
2022-10-12T03:06:27.196Z,100172.00
2022-10-12T03:06:39.162Z,100169.44
2022-10-12T03:06:51.036Z,100174.53
2022-10-12T03:07:03.537Z,100169.31
2022-10-12T03:07:15.436Z,100171.94
2022-10-12T03:07:28.532Z,100170.19
2022-10-12T03:07:40.828Z,100170.09